Hachinohemaru — JE3089 — position and weather

sailwx.info

Track history (hours):
 
Tides and Currents Weather Stations Pressure Air Temp Water Temp Dewpoint Dewpoint Depression Visibility Wind Speed Wind Dir Waves Ship Positions

Hachinohemaru

Last reported at 2015-Apr-20 03:32 UTC. Time now 2015-Apr-21 14:42 UTC.
Position N 35°56' E 140°42'.

Length 168 m; draft 9.3 m.

Type: Cargo ship. MMSI: 431700018.

Date/timePositionNaut miles runAvg speedWind from/ knotsBaromVisibWave heightAir tempDewpointWater temp
2015-Apr-20 03:32N 35°56' E 140°42'0 0.0
2015-Apr-19 14:33N 35°56' E 140°42'7 7.0
2015-Apr-19 13:33N 35°54' E 140°51'1613.2
2015-Apr-19 12:22N 35°40' E 140°57'1614.8
2015-Apr-19 11:17N 35°26' E 140°47'1815.4
2015-Apr-19 10:08N 35°11' E 140°36'1214.8
2015-Apr-19 09:19N 35°03' E 140°25'1414.6
2015-Apr-19 08:21N 34°55' E 140°11'1314.7
2015-Apr-19 07:29N 34°48' E 139°57'1714.0
2015-Apr-19 06:18N 34°41' E 139°39'  
2015-Apr-14 20:12N 34°29' E 138°32'5513.9
2015-Apr-14 16:16N 34°39' E 139°37'1114.3
2015-Apr-14 15:30N 34°45' E 139°48'1414.5
2015-Apr-14 14:33N 34°52' E 140°03'1514.9
2015-Apr-14 13:33N 35°01' E 140°17'1514.6
2015-Apr-14 12:31N 35°09' E 140°33'1313.9
2015-Apr-14 11:33N 35°20' E 140°41'1413.9
2015-Apr-14 10:33N 35°32' E 140°50'1414.1
2015-Apr-14 09:33N 35°45' E 140°57'1313.2
2015-Apr-14 08:33N 35°56' E 140°49'6 0.7
2015-Apr-13 23:32N 35°56' E 140°41'0 0.0
2015-Apr-13 22:08N 35°56' E 140°41'0 0.0
2015-Apr-13 21:08N 35°56' E 140°41'0 0.0
2015-Apr-13 19:14N 35°56' E 140°41'0 0.0
2015-Apr-13 17:20N 35°56' E 140°41'0 0.0
2015-Apr-13 16:14N 35°56' E 140°41'0 0.0
2015-Apr-13 15:26N 35°56' E 140°41'0 0.0
2015-Apr-13 09:14N 35°56' E 140°41'0 0.0
2015-Apr-13 08:26N 35°56' E 140°41'2 0.2
2015-Apr-12 20:33N 35°58' E 140°43'10 9.7
2015-Apr-12 19:29N 36°08' E 140°46'4012.8
2015-Apr-12 16:23N 36°45' E 141°04'39 0.8
2015-Apr-10 14:19N 36°08' E 140°47'1012.8
2015-Apr-10 13:33N 35°59' E 140°43'4 0.4
2015-Apr-10 05:17N 35°56' E 140°41'  
Track history (hours):
 
Tides and Currents Weather Stations Pressure Air Temp Water Temp Dewpoint Dewpoint Depression Visibility Wind Speed Wind Dir Waves Ship Positions

Hachinohemaru

Last reported at 2015-Apr-20 03:32 UTC. Time now 2015-Apr-21 14:42 UTC.
Position N 35°56' E 140°42'.

Length 168 m; draft 9.3 m.

Type: Cargo ship. MMSI: 431700018.

Date/timePositionNaut miles runAvg speedWind from/ knotsBaromVisibWave heightAir tempDewpointWater temp
2015-Apr-20 03:32N 35°56' E 140°42'0 0.0
2015-Apr-19 14:33N 35°56' E 140°42'7 7.0
2015-Apr-19 13:33N 35°54' E 140°51'1613.2
2015-Apr-19 12:22N 35°40' E 140°57'1614.8
2015-Apr-19 11:17N 35°26' E 140°47'1815.4
2015-Apr-19 10:08N 35°11' E 140°36'1214.8
2015-Apr-19 09:19N 35°03' E 140°25'1414.6
2015-Apr-19 08:21N 34°55' E 140°11'1314.7
2015-Apr-19 07:29N 34°48' E 139°57'1714.0
2015-Apr-19 06:18N 34°41' E 139°39'  
2015-Apr-14 20:12N 34°29' E 138°32'5513.9
2015-Apr-14 16:16N 34°39' E 139°37'1114.3
2015-Apr-14 15:30N 34°45' E 139°48'1414.5
2015-Apr-14 14:33N 34°52' E 140°03'1514.9
2015-Apr-14 13:33N 35°01' E 140°17'1514.6
2015-Apr-14 12:31N 35°09' E 140°33'1313.9
2015-Apr-14 11:33N 35°20' E 140°41'1413.9
2015-Apr-14 10:33N 35°32' E 140°50'1414.1
2015-Apr-14 09:33N 35°45' E 140°57'1313.2
2015-Apr-14 08:33N 35°56' E 140°49'6 0.7
2015-Apr-13 23:32N 35°56' E 140°41'0 0.0
2015-Apr-13 22:08N 35°56' E 140°41'0 0.0
2015-Apr-13 21:08N 35°56' E 140°41'0 0.0
2015-Apr-13 19:14N 35°56' E 140°41'0 0.0
2015-Apr-13 17:20N 35°56' E 140°41'0 0.0
2015-Apr-13 16:14N 35°56' E 140°41'0 0.0
2015-Apr-13 15:26N 35°56' E 140°41'0 0.0
2015-Apr-13 09:14N 35°56' E 140°41'0 0.0
2015-Apr-13 08:26N 35°56' E 140°41'2 0.2
2015-Apr-12 20:33N 35°58' E 140°43'10 9.7
2015-Apr-12 19:29N 36°08' E 140°46'4012.8
2015-Apr-12 16:23N 36°45' E 141°04'39 0.8
2015-Apr-10 14:19N 36°08' E 140°47'1012.8
2015-Apr-10 13:33N 35°59' E 140°43'4 0.4
2015-Apr-10 05:17N 35°56' E 140°41'  

Dump ship's entire track history